sensor_id;sensor_type;location;lat;lon;timestamp;P1;durP1;ratioP1;P2;durP2;ratioP2
67053;SDS011;53960;51.826;5.850;2022-09-09T00:04:40;7.97;;;2.60;;
67053;SDS011;53960;51.826;5.850;2022-09-09T00:09:56;7.47;;;2.40;;
67053;SDS011;53960;51.826;5.850;2022-09-09T00:12:38;7.70;;;2.23;;
67053;SDS011;53960;51.826;5.850;2022-09-09T00:15:11;6.88;;;2.03;;
67053;SDS011;53960;51.826;5.850;2022-09-09T00:20:54;7.95;;;2.20;;
67053;SDS011;53960;51.826;5.850;2022-09-09T00:26:19;8.90;;;2.30;;
67053;SDS011;53960;51.826;5.850;2022-09-09T00:31:34;6.78;;;2.33;;
67053;SDS011;53960;51.826;5.850;2022-09-09T00:34:18;7.93;;;2.33;;
67053;SDS011;53960;51.826;5.850;2022-09-09T00:36:48;8.65;;;2.60;;
67053;SDS011;53960;51.826;5.850;2022-09-09T00:39:27;7.43;;;2.70;;
67053;SDS011;53960;51.826;5.850;2022-09-09T00:49:57;7.53;;;2.60;;
67053;SDS011;53960;51.826;5.850;2022-09-09T00:52:45;6.82;;;2.35;;
67053;SDS011;53960;51.826;5.850;2022-09-09T00:55:33;7.50;;;2.50;;
67053;SDS011;53960;51.826;5.850;2022-09-09T00:58:14;6.53;;;2.30;;
67053;SDS011;53960;51.826;5.850;2022-09-09T01:00:52;7.20;;;2.43;;
67053;SDS011;53960;51.826;5.850;2022-09-09T01:03:37;7.68;;;2.60;;
67053;SDS011;53960;51.826;5.850;2022-09-09T01:06:15;7.47;;;2.47;;
67053;SDS011;53960;51.826;5.850;2022-09-09T01:11:21;7.43;;;2.50;;
67053;SDS011;53960;51.826;5.850;2022-09-09T01:13:47;7.47;;;2.33;;
67053;SDS011;53960;51.826;5.850;2022-09-09T01:16:18;6.78;;;2.50;;
67053;SDS011;53960;51.826;5.850;2022-09-09T01:18:44;6.30;;;2.25;;
67053;SDS011;53960;51.826;5.850;2022-09-09T01:24:18;9.50;;;3.03;;
67053;SDS011;53960;51.826;5.850;2022-09-09T01:26:47;8.73;;;3.00;;
67053;SDS011;53960;51.826;5.850;2022-09-09T01:29:16;8.77;;;3.42;;
67053;SDS011;53960;51.826;5.850;2022-09-09T01:34:24;7.57;;;3.20;;
67053;SDS011;53960;51.826;5.850;2022-09-09T01:37:04;9.15;;;3.33;;
67053;SDS011;53960;51.826;5.850;2022-09-09T01:39:32;8.90;;;3.50;;
67053;SDS011;53960;51.826;5.850;2022-09-09T01:41:59;8.18;;;3.40;;
67053;SDS011;53960;51.826;5.850;2022-09-09T01:44:24;8.40;;;3.73;;
67053;SDS011;53960;51.826;5.850;2022-09-09T01:46:51;10.20;;;4.72;;
67053;SDS011;53960;51.826;5.850;2022-09-09T01:49:17;9.37;;;4.27;;
67053;SDS011;53960;51.826;5.850;2022-09-09T01:51:43;9.57;;;4.50;;
67053;SDS011;53960;51.826;5.850;2022-09-09T01:54:11;9.03;;;4.33;;
67053;SDS011;53960;51.826;5.850;2022-09-09T01:56:43;10.40;;;4.88;;
67053;SDS011;53960;51.826;5.850;2022-09-09T01:59:37;9.07;;;4.30;;
67053;SDS011;53960;51.826;5.850;2022-09-09T02:02:33;9.13;;;3.80;;
67053;SDS011;53960;51.826;5.850;2022-09-09T02:05:11;9.73;;;4.15;;
67053;SDS011;53960;51.826;5.850;2022-09-09T02:07:46;10.68;;;4.07;;
67053;SDS011;53960;51.826;5.850;2022-09-09T02:10:19;8.80;;;4.30;;
67053;SDS011;53960;51.826;5.850;2022-09-09T02:12:49;10.55;;;4.45;;
67053;SDS011;53960;51.826;5.850;2022-09-09T02:15:21;8.90;;;4.13;;
67053;SDS011;53960;51.826;5.850;2022-09-09T02:17:51;10.07;;;4.43;;
67053;SDS011;53960;51.826;5.850;2022-09-09T02:20:18;10.38;;;3.83;;
67053;SDS011;53960;51.826;5.850;2022-09-09T02:22:45;9.43;;;3.55;;
67053;SDS011;53960;51.826;5.850;2022-09-09T02:25:14;9.70;;;4.30;;
67053;SDS011;53960;51.826;5.850;2022-09-09T02:27:43;8.43;;;3.50;;
67053;SDS011;53960;51.826;5.850;2022-09-09T02:30:11;9.15;;;3.70;;
67053;SDS011;53960;51.826;5.850;2022-09-09T02:32:37;9.65;;;3.80;;
67053;SDS011;53960;51.826;5.850;2022-09-09T02:35:07;10.55;;;3.92;;
67053;SDS011;53960;51.826;5.850;2022-09-09T02:37:38;10.05;;;3.90;;
67053;SDS011;53960;51.826;5.850;2022-09-09T02:40:05;10.10;;;3.70;;
67053;SDS011;53960;51.826;5.850;2022-09-09T02:42:40;10.48;;;3.90;;
67053;SDS011;53960;51.826;5.850;2022-09-09T02:45:07;9.25;;;3.60;;
67053;SDS011;53960;51.826;5.850;2022-09-09T02:47:35;10.38;;;3.50;;
67053;SDS011;53960;51.826;5.850;2022-09-09T02:52:51;8.97;;;3.60;;
67053;SDS011;53960;51.826;5.850;2022-09-09T02:55:35;9.02;;;4.63;;
67053;SDS011;53960;51.826;5.850;2022-09-09T02:58:05;9.73;;;4.15;;
67053;SDS011;53960;51.826;5.850;2022-09-09T03:00:33;12.95;;;4.28;;
67053;SDS011;53960;51.826;5.850;2022-09-09T03:03:02;8.70;;;3.83;;
67053;SDS011;53960;51.826;5.850;2022-09-09T03:05:29;10.30;;;3.97;;
67053;SDS011;53960;51.826;5.850;2022-09-09T03:07:54;14.32;;;4.38;;
67053;SDS011;53960;51.826;5.850;2022-09-09T03:10:19;10.10;;;3.87;;
67053;SDS011;53960;51.826;5.850;2022-09-09T03:12:45;10.57;;;3.90;;
67053;SDS011;53960;51.826;5.850;2022-09-09T03:15:10;8.77;;;3.60;;
67053;SDS011;53960;51.826;5.850;2022-09-09T03:17:36;11.03;;;4.57;;
67053;SDS011;53960;51.826;5.850;2022-09-09T03:20:02;10.82;;;4.18;;
67053;SDS011;53960;51.826;5.850;2022-09-09T03:22:28;11.57;;;4.40;;
67053;SDS011;53960;51.826;5.850;2022-09-09T03:24:54;10.00;;;4.60;;
67053;SDS011;53960;51.826;5.850;2022-09-09T03:27:19;11.97;;;4.83;;
67053;SDS011;53960;51.826;5.850;2022-09-09T03:29:45;12.30;;;5.43;;
67053;SDS011;53960;51.826;5.850;2022-09-09T03:32:10;9.80;;;4.27;;
67053;SDS011;53960;51.826;5.850;2022-09-09T03:34:37;10.32;;;4.40;;
67053;SDS011;53960;51.826;5.850;2022-09-09T03:37:06;10.35;;;4.50;;
67053;SDS011;53960;51.826;5.850;2022-09-09T03:39:31;11.47;;;4.80;;
67053;SDS011;53960;51.826;5.850;2022-09-09T03:41:56;10.87;;;4.77;;
67053;SDS011;53960;51.826;5.850;2022-09-09T03:44:22;11.38;;;4.35;;
67053;SDS011;53960;51.826;5.850;2022-09-09T03:46:47;12.27;;;5.00;;
67053;SDS011;53960;51.826;5.850;2022-09-09T03:49:12;9.97;;;4.47;;
67053;SDS011;53960;51.826;5.850;2022-09-09T03:51:38;11.87;;;4.57;;
67053;SDS011;53960;51.826;5.850;2022-09-09T03:54:03;12.63;;;4.60;;
67053;SDS011;53960;51.826;5.850;2022-09-09T03:56:33;11.27;;;4.22;;
67053;SDS011;53960;51.826;5.850;2022-09-09T03:58:58;11.43;;;4.77;;
67053;SDS011;53960;51.826;5.850;2022-09-09T04:01:23;13.47;;;4.90;;
67053;SDS011;53960;51.826;5.850;2022-09-09T04:03:48;10.90;;;4.67;;
67053;SDS011;53960;51.826;5.850;2022-09-09T04:06:15;11.65;;;4.32;;
67053;SDS011;53960;51.826;5.850;2022-09-09T04:08:42;11.43;;;4.25;;
67053;SDS011;53960;51.826;5.850;2022-09-09T04:11:07;11.90;;;4.30;;
67053;SDS011;53960;51.826;5.850;2022-09-09T04:13:33;12.63;;;4.43;;
67053;SDS011;53960;51.826;5.850;2022-09-09T04:16:00;9.83;;;4.20;;
67053;SDS011;53960;51.826;5.850;2022-09-09T04:18:27;10.15;;;3.65;;
67053;SDS011;53960;51.826;5.850;2022-09-09T04:20:56;9.82;;;3.95;;
67053;SDS011;53960;51.826;5.850;2022-09-09T04:23:22;12.95;;;3.50;;
67053;SDS011;53960;51.826;5.850;2022-09-09T04:25:50;10.77;;;4.03;;
67053;SDS011;53960;51.826;5.850;2022-09-09T04:28:17;10.10;;;3.60;;
67053;SDS011;53960;51.826;5.850;2022-09-09T04:30:44;11.43;;;3.75;;
67053;SDS011;53960;51.826;5.850;2022-09-09T04:33:10;9.75;;;3.55;;
67053;SDS011;53960;51.826;5.850;2022-09-09T04:35:36;9.13;;;3.30;;
67053;SDS011;53960;51.826;5.850;2022-09-09T04:38:02;13.05;;;3.60;;
67053;SDS011;53960;51.826;5.850;2022-09-09T04:40:32;12.50;;;3.78;;
67053;SDS011;53960;51.826;5.850;2022-09-09T04:42:58;9.55;;;3.90;;
67053;SDS011;53960;51.826;5.850;2022-09-09T04:45:24;10.00;;;3.70;;
67053;SDS011;53960;51.826;5.850;2022-09-09T04:47:51;11.35;;;3.90;;
67053;SDS011;53960;51.826;5.850;2022-09-09T04:50:16;11.33;;;3.67;;
67053;SDS011;53960;51.826;5.850;2022-09-09T04:52:41;10.70;;;3.93;;
67053;SDS011;53960;51.826;5.850;2022-09-09T04:55:07;9.55;;;3.60;;
67053;SDS011;53960;51.826;5.850;2022-09-09T04:57:32;11.13;;;3.93;;
67053;SDS011;53960;51.826;5.850;2022-09-09T04:59:59;11.38;;;3.83;;
67053;SDS011;53960;51.826;5.850;2022-09-09T05:02:25;12.17;;;3.90;;
67053;SDS011;53960;51.826;5.850;2022-09-09T05:04:53;11.32;;;3.50;;
67053;SDS011;53960;51.826;5.850;2022-09-09T05:07:19;10.60;;;3.63;;
67053;SDS011;53960;51.826;5.850;2022-09-09T05:09:44;11.73;;;3.80;;
67053;SDS011;53960;51.826;5.850;2022-09-09T05:12:10;10.30;;;3.67;;
67053;SDS011;53960;51.826;5.850;2022-09-09T05:14:36;8.60;;;3.67;;
67053;SDS011;53960;51.826;5.850;2022-09-09T05:17:02;9.37;;;3.63;;
67053;SDS011;53960;51.826;5.850;2022-09-09T05:19:28;11.90;;;3.92;;
67053;SDS011;53960;51.826;5.850;2022-09-09T05:21:53;10.03;;;3.83;;
67053;SDS011;53960;51.826;5.850;2022-09-09T05:24:19;11.83;;;3.73;;
67053;SDS011;53960;51.826;5.850;2022-09-09T05:26:44;9.93;;;3.97;;
67053;SDS011;53960;51.826;5.850;2022-09-09T05:29:09;11.33;;;4.00;;
67053;SDS011;53960;51.826;5.850;2022-09-09T05:31:35;11.53;;;3.83;;
67053;SDS011;53960;51.826;5.850;2022-09-09T05:34:00;9.83;;;3.20;;
67053;SDS011;53960;51.826;5.850;2022-09-09T05:36:25;12.67;;;3.60;;
67053;SDS011;53960;51.826;5.850;2022-09-09T05:38:51;11.85;;;3.38;;
67053;SDS011;53960;51.826;5.850;2022-09-09T05:41:18;12.30;;;3.37;;
67053;SDS011;53960;51.826;5.850;2022-09-09T05:43:45;10.77;;;3.50;;
67053;SDS011;53960;51.826;5.850;2022-09-09T05:46:12;13.02;;;3.20;;
67053;SDS011;53960;51.826;5.850;2022-09-09T05:48:42;14.18;;;3.25;;
67053;SDS011;53960;51.826;5.850;2022-09-09T05:51:12;11.68;;;3.38;;
67053;SDS011;53960;51.826;5.850;2022-09-09T05:53:43;11.23;;;3.13;;
67053;SDS011;53960;51.826;5.850;2022-09-09T05:56:10;10.50;;;3.08;;
67053;SDS011;53960;51.826;5.850;2022-09-09T05:58:37;11.65;;;3.38;;
67053;SDS011;53960;51.826;5.850;2022-09-09T06:01:13;12.48;;;3.40;;
67053;SDS011;53960;51.826;5.850;2022-09-09T06:03:40;10.57;;;3.08;;
67053;SDS011;53960;51.826;5.850;2022-09-09T06:06:08;10.87;;;2.83;;
67053;SDS011;53960;51.826;5.850;2022-09-09T06:08:36;13.27;;;3.35;;
67053;SDS011;53960;51.826;5.850;2022-09-09T06:13:41;10.55;;;2.80;;
67053;SDS011;53960;51.826;5.850;2022-09-09T06:16:10;10.40;;;3.28;;
67053;SDS011;53960;51.826;5.850;2022-09-09T06:18:37;10.37;;;2.83;;
67053;SDS011;53960;51.826;5.850;2022-09-09T06:21:04;11.95;;;2.85;;
67053;SDS011;53960;51.826;5.850;2022-09-09T06:23:31;11.70;;;2.80;;
67053;SDS011;53960;51.826;5.850;2022-09-09T06:28:56;11.32;;;3.00;;
67053;SDS011;53960;51.826;5.850;2022-09-09T06:31:23;11.93;;;2.83;;
67053;SDS011;53960;51.826;5.850;2022-09-09T06:33:51;12.27;;;2.50;;
67053;SDS011;53960;51.826;5.850;2022-09-09T06:36:18;9.20;;;2.47;;
67053;SDS011;53960;51.826;5.850;2022-09-09T06:38:49;12.65;;;2.70;;
67053;SDS011;53960;51.826;5.850;2022-09-09T06:41:15;10.10;;;2.50;;
67053;SDS011;53960;51.826;5.850;2022-09-09T06:43:43;11.25;;;2.58;;
67053;SDS011;53960;51.826;5.850;2022-09-09T06:46:10;9.13;;;2.63;;
67053;SDS011;53960;51.826;5.850;2022-09-09T06:48:40;11.73;;;3.00;;
67053;SDS011;53960;51.826;5.850;2022-09-09T06:51:08;8.80;;;2.50;;
67053;SDS011;53960;51.826;5.850;2022-09-09T06:53:41;12.40;;;2.60;;
67053;SDS011;53960;51.826;5.850;2022-09-09T06:56:19;9.43;;;2.17;;
67053;SDS011;53960;51.826;5.850;2022-09-09T06:58:50;10.55;;;2.30;;
67053;SDS011;53960;51.826;5.850;2022-09-09T07:01:17;10.90;;;2.60;;
67053;SDS011;53960;51.826;5.850;2022-09-09T07:03:45;9.25;;;2.78;;
67053;SDS011;53960;51.826;5.850;2022-09-09T07:06:20;11.18;;;2.47;;
67053;SDS011;53960;51.826;5.850;2022-09-09T07:08:53;12.33;;;3.07;;
67053;SDS011;53960;51.826;5.850;2022-09-09T07:11:20;8.98;;;2.70;;
67053;SDS011;53960;51.826;5.850;2022-09-09T07:13:46;10.88;;;2.47;;
67053;SDS011;53960;51.826;5.850;2022-09-09T07:16:14;10.35;;;2.90;;
67053;SDS011;53960;51.826;5.850;2022-09-09T07:18:41;10.63;;;2.80;;
67053;SDS011;53960;51.826;5.850;2022-09-09T07:21:07;11.50;;;3.03;;
67053;SDS011;53960;51.826;5.850;2022-09-09T07:23:34;12.45;;;2.67;;
67053;SDS011;53960;51.826;5.850;2022-09-09T07:26:06;11.48;;;2.83;;
67053;SDS011;53960;51.826;5.850;2022-09-09T07:28:33;11.00;;;2.70;;
67053;SDS011;53960;51.826;5.850;2022-09-09T07:30:59;9.73;;;2.73;;
67053;SDS011;53960;51.826;5.850;2022-09-09T07:33:29;13.95;;;2.88;;
67053;SDS011;53960;51.826;5.850;2022-09-09T07:36:02;10.85;;;2.72;;
67053;SDS011;53960;51.826;5.850;2022-09-09T07:38:32;11.20;;;3.00;;
67053;SDS011;53960;51.826;5.850;2022-09-09T07:41:06;11.32;;;2.60;;
67053;SDS011;53960;51.826;5.850;2022-09-09T07:43:36;12.53;;;3.07;;
67053;SDS011;53960;51.826;5.850;2022-09-09T07:46:04;10.88;;;2.85;;
67053;SDS011;53960;51.826;5.850;2022-09-09T07:48:30;15.00;;;3.15;;
67053;SDS011;53960;51.826;5.850;2022-09-09T07:51:06;12.63;;;2.70;;
67053;SDS011;53960;51.826;5.850;2022-09-09T07:53:37;11.75;;;2.60;;
67053;SDS011;53960;51.826;5.850;2022-09-09T07:56:04;10.65;;;2.33;;
67053;SDS011;53960;51.826;5.850;2022-09-09T07:58:31;9.82;;;2.40;;
67053;SDS011;53960;51.826;5.850;2022-09-09T08:00:56;10.73;;;3.03;;
67053;SDS011;53960;51.826;5.850;2022-09-09T08:03:22;10.47;;;2.57;;
67053;SDS011;53960;51.826;5.850;2022-09-09T08:05:48;10.63;;;2.78;;
67053;SDS011;53960;51.826;5.850;2022-09-09T08:08:14;11.38;;;2.55;;
67053;SDS011;53960;51.826;5.850;2022-09-09T08:10:41;9.25;;;2.50;;
67053;SDS011;53960;51.826;5.850;2022-09-09T08:13:06;13.63;;;2.60;;
67053;SDS011;53960;51.826;5.850;2022-09-09T08:15:31;9.90;;;2.50;;
67053;SDS011;53960;51.826;5.850;2022-09-09T08:17:57;12.93;;;2.33;;
67053;SDS011;53960;51.826;5.850;2022-09-09T08:20:22;12.57;;;2.77;;
67053;SDS011;53960;51.826;5.850;2022-09-09T08:22:48;10.13;;;2.30;;
67053;SDS011;53960;51.826;5.850;2022-09-09T08:25:14;10.68;;;2.35;;
67053;SDS011;53960;51.826;5.850;2022-09-09T08:27:40;8.40;;;1.97;;
67053;SDS011;53960;51.826;5.850;2022-09-09T08:30:05;9.17;;;2.30;;
67053;SDS011;53960;51.826;5.850;2022-09-09T08:32:31;9.25;;;2.10;;
67053;SDS011;53960;51.826;5.850;2022-09-09T08:34:56;7.80;;;2.00;;
67053;SDS011;53960;51.826;5.850;2022-09-09T08:37:22;8.67;;;1.90;;
67053;SDS011;53960;51.826;5.850;2022-09-09T08:39:47;9.03;;;1.77;;
67053;SDS011;53960;51.826;5.850;2022-09-09T08:52:51;13.02;;;2.20;;
67053;SDS011;53960;51.826;5.850;2022-09-09T08:55:52;8.73;;;1.73;;
67053;SDS011;53960;51.826;5.850;2022-09-09T08:58:21;9.93;;;1.83;;
67053;SDS011;53960;51.826;5.850;2022-09-09T09:03:35;8.48;;;1.90;;
67053;SDS011;53960;51.826;5.850;2022-09-09T09:08:53;8.97;;;2.20;;
67053;SDS011;53960;51.826;5.850;2022-09-09T09:11:21;8.85;;;1.77;;
67053;SDS011;53960;51.826;5.850;2022-09-09T09:18:51;9.60;;;1.70;;
67053;SDS011;53960;51.826;5.850;2022-09-09T09:21:28;11.40;;;1.70;;
67053;SDS011;53960;51.826;5.850;2022-09-09T09:24:20;8.52;;;1.70;;
67053;SDS011;53960;51.826;5.850;2022-09-09T09:26:51;8.43;;;1.40;;
67053;SDS011;53960;51.826;5.850;2022-09-09T09:29:18;11.00;;;2.08;;
67053;SDS011;53960;51.826;5.850;2022-09-09T09:31:51;10.05;;;1.77;;
67053;SDS011;53960;51.826;5.850;2022-09-09T09:34:19;8.73;;;1.53;;
67053;SDS011;53960;51.826;5.850;2022-09-09T09:36:46;9.65;;;1.58;;
67053;SDS011;53960;51.826;5.850;2022-09-09T09:41:49;8.93;;;1.85;;
67053;SDS011;53960;51.826;5.850;2022-09-09T09:44:26;8.53;;;1.50;;
67053;SDS011;53960;51.826;5.850;2022-09-09T09:47:04;10.88;;;1.63;;
67053;SDS011;53960;51.826;5.850;2022-09-09T09:49:34;8.20;;;1.52;;
67053;SDS011;53960;51.826;5.850;2022-09-09T09:52:00;8.83;;;1.67;;
67053;SDS011;53960;51.826;5.850;2022-09-09T09:54:33;8.75;;;1.75;;
67053;SDS011;53960;51.826;5.850;2022-09-09T09:57:10;9.30;;;1.70;;
67053;SDS011;53960;51.826;5.850;2022-09-09T09:59:37;7.90;;;1.50;;
67053;SDS011;53960;51.826;5.850;2022-09-09T10:02:06;9.27;;;1.80;;
67053;SDS011;53960;51.826;5.850;2022-09-09T10:04:40;7.53;;;1.85;;
67053;SDS011;53960;51.826;5.850;2022-09-09T10:07:13;9.52;;;1.98;;
67053;SDS011;53960;51.826;5.850;2022-09-09T10:09:43;11.87;;;1.67;;
67053;SDS011;53960;51.826;5.850;2022-09-09T10:12:16;9.77;;;1.83;;
67053;SDS011;53960;51.826;5.850;2022-09-09T10:15:25;9.80;;;1.80;;
67053;SDS011;53960;51.826;5.850;2022-09-09T10:20:48;11.47;;;1.80;;
67053;SDS011;53960;51.826;5.850;2022-09-09T10:26:38;10.00;;;1.95;;
67053;SDS011;53960;51.826;5.850;2022-09-09T10:29:30;9.07;;;1.55;;
67053;SDS011;53960;51.826;5.850;2022-09-09T10:35:18;8.83;;;2.23;;
67053;SDS011;53960;51.826;5.850;2022-09-09T10:38:12;9.40;;;1.88;;
67053;SDS011;53960;51.826;5.850;2022-09-09T10:54:22;9.77;;;1.65;;
67053;SDS011;53960;51.826;5.850;2022-09-09T10:56:51;8.75;;;1.90;;
67053;SDS011;53960;51.826;5.850;2022-09-09T10:59:23;10.02;;;2.35;;
67053;SDS011;53960;51.826;5.850;2022-09-09T11:01:59;9.63;;;1.93;;
67053;SDS011;53960;51.826;5.850;2022-09-09T11:04:33;9.18;;;2.00;;
67053;SDS011;53960;51.826;5.850;2022-09-09T11:07:05;9.02;;;1.70;;
67053;SDS011;53960;51.826;5.850;2022-09-09T11:09:36;10.80;;;1.85;;
67053;SDS011;53960;51.826;5.850;2022-09-09T11:12:06;9.02;;;2.10;;
67053;SDS011;53960;51.826;5.850;2022-09-09T11:14:40;9.17;;;1.80;;
67053;SDS011;53960;51.826;5.850;2022-09-09T11:17:08;9.43;;;1.55;;
67053;SDS011;53960;51.826;5.850;2022-09-09T11:19:38;9.38;;;1.95;;
67053;SDS011;53960;51.826;5.850;2022-09-09T11:22:14;8.82;;;1.80;;
67053;SDS011;53960;51.826;5.850;2022-09-09T11:24:45;10.93;;;2.10;;
67053;SDS011;53960;51.826;5.850;2022-09-09T11:27:18;10.33;;;2.10;;
67053;SDS011;53960;51.826;5.850;2022-09-09T11:30:14;7.35;;;2.03;;
67053;SDS011;53960;51.826;5.850;2022-09-09T11:33:04;8.43;;;2.42;;
67053;SDS011;53960;51.826;5.850;2022-09-09T11:40:43;8.97;;;2.57;;
67053;SDS011;53960;51.826;5.850;2022-09-09T11:43:17;9.88;;;2.40;;
67053;SDS011;53960;51.826;5.850;2022-09-09T11:45:51;7.70;;;2.22;;
67053;SDS011;53960;51.826;5.850;2022-09-09T11:48:22;7.90;;;2.20;;
67053;SDS011;53960;51.826;5.850;2022-09-09T11:50:56;8.77;;;2.35;;
67053;SDS011;53960;51.826;5.850;2022-09-09T11:53:23;6.80;;;2.10;;
67053;SDS011;53960;51.826;5.850;2022-09-09T11:56:00;9.18;;;2.42;;
67053;SDS011;53960;51.826;5.850;2022-09-09T11:58:27;9.85;;;2.42;;
67053;SDS011;53960;51.826;5.850;2022-09-09T12:00:57;10.83;;;2.43;;
67053;SDS011;53960;51.826;5.850;2022-09-09T12:06:16;10.15;;;2.60;;
67053;SDS011;53960;51.826;5.850;2022-09-09T12:08:45;10.38;;;2.80;;
67053;SDS011;53960;51.826;5.850;2022-09-09T12:11:25;8.20;;;2.53;;
67053;SDS011;53960;51.826;5.850;2022-09-09T12:13:54;10.75;;;2.40;;
67053;SDS011;53960;51.826;5.850;2022-09-09T12:16:32;8.25;;;2.13;;
67053;SDS011;53960;51.826;5.850;2022-09-09T12:19:32;7.95;;;2.10;;
67053;SDS011;53960;51.826;5.850;2022-09-09T12:21:54;10.48;;;2.35;;
67053;SDS011;53960;51.826;5.850;2022-09-09T12:24:31;9.27;;;2.50;;
67053;SDS011;53960;51.826;5.850;2022-09-09T12:32:11;8.80;;;2.25;;
67053;SDS011;53960;51.826;5.850;2022-09-09T12:34:52;8.73;;;2.10;;
67053;SDS011;53960;51.826;5.850;2022-09-09T12:37:32;8.57;;;2.20;;
67053;SDS011;53960;51.826;5.850;2022-09-09T12:40:01;8.20;;;2.00;;
67053;SDS011;53960;51.826;5.850;2022-09-09T12:42:30;7.97;;;2.20;;
67053;SDS011;53960;51.826;5.850;2022-09-09T12:45:03;8.73;;;2.03;;
67053;SDS011;53960;51.826;5.850;2022-09-09T12:47:43;10.68;;;2.03;;
67053;SDS011;53960;51.826;5.850;2022-09-09T12:50:20;8.07;;;2.05;;
67053;SDS011;53960;51.826;5.850;2022-09-09T12:52:50;8.33;;;1.90;;
67053;SDS011;53960;51.826;5.850;2022-09-09T12:55:20;9.60;;;2.15;;
67053;SDS011;53960;51.826;5.850;2022-09-09T12:57:50;8.23;;;2.17;;
67053;SDS011;53960;51.826;5.850;2022-09-09T13:00:18;7.47;;;2.40;;
67053;SDS011;53960;51.826;5.850;2022-09-09T13:05:16;7.83;;;2.10;;
67053;SDS011;53960;51.826;5.850;2022-09-09T13:07:47;7.93;;;2.30;;
67053;SDS011;53960;51.826;5.850;2022-09-09T13:10:13;9.10;;;2.43;;
67053;SDS011;53960;51.826;5.850;2022-09-09T13:12:42;8.50;;;2.33;;
67053;SDS011;53960;51.826;5.850;2022-09-09T13:15:16;8.23;;;2.40;;
67053;SDS011;53960;51.826;5.850;2022-09-09T13:17:51;8.18;;;2.45;;
67053;SDS011;53960;51.826;5.850;2022-09-09T13:20:19;8.00;;;2.08;;
67053;SDS011;53960;51.826;5.850;2022-09-09T13:22:46;8.53;;;2.27;;
67053;SDS011;53960;51.826;5.850;2022-09-09T13:28:03;9.15;;;2.33;;
67053;SDS011;53960;51.826;5.850;2022-09-09T13:35:47;10.70;;;2.20;;
67053;SDS011;53960;51.826;5.850;2022-09-09T13:38:19;7.72;;;2.42;;
67053;SDS011;53960;51.826;5.850;2022-09-09T13:43:24;7.30;;;2.10;;
67053;SDS011;53960;51.826;5.850;2022-09-09T13:45:55;9.25;;;2.55;;
67053;SDS011;53960;51.826;5.850;2022-09-09T13:48:26;8.40;;;2.35;;
67053;SDS011;53960;51.826;5.850;2022-09-09T13:51:02;7.75;;;2.70;;
67053;SDS011;53960;51.826;5.850;2022-09-09T13:53:32;12.35;;;3.00;;
67053;SDS011;53960;51.826;5.850;2022-09-09T13:55:58;8.50;;;2.70;;
67053;SDS011;53960;51.826;5.850;2022-09-09T13:58:24;7.70;;;2.47;;
67053;SDS011;53960;51.826;5.850;2022-09-09T14:00:50;11.32;;;3.00;;
67053;SDS011;53960;51.826;5.850;2022-09-09T14:03:17;10.55;;;3.25;;
67053;SDS011;53960;51.826;5.850;2022-09-09T14:05:43;8.50;;;2.93;;
67053;SDS011;53960;51.826;5.850;2022-09-09T14:08:09;9.95;;;2.97;;
67053;SDS011;53960;51.826;5.850;2022-09-09T14:10:45;10.13;;;2.90;;
67053;SDS011;53960;51.826;5.850;2022-09-09T14:13:10;10.93;;;3.33;;
67053;SDS011;53960;51.826;5.850;2022-09-09T14:15:37;10.35;;;3.05;;
67053;SDS011;53960;51.826;5.850;2022-09-09T14:18:02;9.23;;;3.33;;
67053;SDS011;53960;51.826;5.850;2022-09-09T14:20:27;10.17;;;3.20;;
67053;SDS011;53960;51.826;5.850;2022-09-09T14:22:53;10.10;;;2.93;;
67053;SDS011;53960;51.826;5.850;2022-09-09T14:25:18;10.37;;;2.93;;
67053;SDS011;53960;51.826;5.850;2022-09-09T14:27:44;9.63;;;2.40;;
67053;SDS011;53960;51.826;5.850;2022-09-09T14:30:10;8.82;;;2.70;;
67053;SDS011;53960;51.826;5.850;2022-09-09T14:32:36;11.23;;;2.58;;
67053;SDS011;53960;51.826;5.850;2022-09-09T14:35:01;10.07;;;2.50;;
67053;SDS011;53960;51.826;5.850;2022-09-09T14:37:27;8.13;;;2.00;;
67053;SDS011;53960;51.826;5.850;2022-09-09T14:39:52;8.03;;;2.17;;
67053;SDS011;53960;51.826;5.850;2022-09-09T14:42:19;7.78;;;2.20;;
67053;SDS011;53960;51.826;5.850;2022-09-09T14:44:44;8.23;;;2.33;;
67053;SDS011;53960;51.826;5.850;2022-09-09T14:47:09;9.60;;;2.50;;
67053;SDS011;53960;51.826;5.850;2022-09-09T14:49:35;7.47;;;2.33;;
67053;SDS011;53960;51.826;5.850;2022-09-09T14:52:01;10.40;;;2.10;;
67053;SDS011;53960;51.826;5.850;2022-09-09T14:54:26;9.30;;;2.30;;
67053;SDS011;53960;51.826;5.850;2022-09-09T14:56:53;10.07;;;2.40;;
67053;SDS011;53960;51.826;5.850;2022-09-09T14:59:18;10.23;;;2.43;;
67053;SDS011;53960;51.826;5.850;2022-09-09T15:01:43;9.40;;;2.67;;
67053;SDS011;53960;51.826;5.850;2022-09-09T15:04:10;7.60;;;1.87;;
67053;SDS011;53960;51.826;5.850;2022-09-09T15:06:37;8.80;;;2.00;;
67053;SDS011;53960;51.826;5.850;2022-09-09T15:09:04;8.03;;;1.60;;
67053;SDS011;53960;51.826;5.850;2022-09-09T15:11:33;9.55;;;1.73;;
67053;SDS011;53960;51.826;5.850;2022-09-09T15:14:02;8.23;;;2.00;;
67053;SDS011;53960;51.826;5.850;2022-09-09T15:16:28;8.15;;;1.55;;
67053;SDS011;53960;51.826;5.850;2022-09-09T15:18:55;8.77;;;2.07;;
67053;SDS011;53960;51.826;5.850;2022-09-09T15:21:23;9.05;;;2.00;;
67053;SDS011;53960;51.826;5.850;2022-09-09T15:23:50;8.75;;;1.83;;
67053;SDS011;53960;51.826;5.850;2022-09-09T15:26:16;8.43;;;2.10;;
67053;SDS011;53960;51.826;5.850;2022-09-09T15:28:43;8.25;;;1.80;;
67053;SDS011;53960;51.826;5.850;2022-09-09T15:31:11;8.23;;;1.90;;
67053;SDS011;53960;51.826;5.850;2022-09-09T15:33:51;9.10;;;1.73;;
67053;SDS011;53960;51.826;5.850;2022-09-09T15:36:24;9.45;;;1.90;;
67053;SDS011;53960;51.826;5.850;2022-09-09T15:38:51;7.85;;;1.98;;
67053;SDS011;53960;51.826;5.850;2022-09-09T15:41:18;8.57;;;1.88;;
67053;SDS011;53960;51.826;5.850;2022-09-09T15:43:45;7.88;;;1.90;;
67053;SDS011;53960;51.826;5.850;2022-09-09T15:48:43;6.97;;;2.00;;
67053;SDS011;53960;51.826;5.850;2022-09-09T15:51:09;6.80;;;1.80;;
67053;SDS011;53960;51.826;5.850;2022-09-09T15:53:35;8.02;;;1.80;;
67053;SDS011;53960;51.826;5.850;2022-09-09T15:56:02;6.93;;;2.00;;
67053;SDS011;53960;51.826;5.850;2022-09-09T15:58:29;7.97;;;2.00;;
67053;SDS011;53960;51.826;5.850;2022-09-09T16:01:01;7.15;;;1.85;;
67053;SDS011;53960;51.826;5.850;2022-09-09T16:03:37;13.40;;;2.87;;
67053;SDS011;53960;51.826;5.850;2022-09-09T16:06:04;7.78;;;1.80;;
67053;SDS011;53960;51.826;5.850;2022-09-09T16:08:37;8.23;;;2.15;;
67053;SDS011;53960;51.826;5.850;2022-09-09T16:11:05;7.45;;;1.70;;
67053;SDS011;53960;51.826;5.850;2022-09-09T16:13:41;6.38;;;1.50;;
67053;SDS011;53960;51.826;5.850;2022-09-09T16:16:09;6.00;;;1.50;;
67053;SDS011;53960;51.826;5.850;2022-09-09T16:18:36;8.65;;;2.10;;
67053;SDS011;53960;51.826;5.850;2022-09-09T16:21:03;6.40;;;1.85;;
67053;SDS011;53960;51.826;5.850;2022-09-09T16:23:30;6.38;;;1.73;;
67053;SDS011;53960;51.826;5.850;2022-09-09T16:25:56;5.55;;;1.85;;
67053;SDS011;53960;51.826;5.850;2022-09-09T16:28:21;6.67;;;2.47;;
67053;SDS011;53960;51.826;5.850;2022-09-09T16:30:47;6.85;;;2.00;;
67053;SDS011;53960;51.826;5.850;2022-09-09T16:33:13;7.30;;;1.83;;
67053;SDS011;53960;51.826;5.850;2022-09-09T16:35:41;5.47;;;1.80;;
67053;SDS011;53960;51.826;5.850;2022-09-09T16:38:06;6.73;;;1.97;;
67053;SDS011;53960;51.826;5.850;2022-09-09T16:40:38;9.53;;;2.27;;
67053;SDS011;53960;51.826;5.850;2022-09-09T16:43:05;6.53;;;2.00;;
67053;SDS011;53960;51.826;5.850;2022-09-09T16:45:34;5.90;;;2.00;;
67053;SDS011;53960;51.826;5.850;2022-09-09T16:48:05;6.95;;;2.33;;
67053;SDS011;53960;51.826;5.850;2022-09-09T16:50:31;8.70;;;2.50;;
67053;SDS011;53960;51.826;5.850;2022-09-09T16:52:56;7.43;;;2.20;;